Terminal Aerodrome Forecast
Issued by NWS Lake Charles, LA

Home | Current Version | Previous Version | Text Only | Print | Product List | Glossary On
Versions: 1 2 3 4 5 6 7 8 9 10 11 12 13 14 15 16 17 18 19 20 21 22 23 24 25 26 27 28 29 30 31 32
000
FTUS44 KLCH 230520
TAFAEX
TAF
KAEX 230520Z 2306/2406 VRB04KT P6SM OVC030
     FM231000 VRB04KT P6SM BKN025 BKN250
     FM231200 11004KT P6SM SCT016 BKN020
     FM231500 12008KT P6SM BKN025
     FM231800 13007KT P6SM VCTS SCT025 BKN030CB
      TEMPO 2319/2323 3SM -TSRA SCT020 BKN028CB
     FM240000 13007KT P6SM SCT050 OVC250=

USA.gov is the U.S. government's official web portal to all federal, state and local government web resources and services.